sensor_id;sensor_type;location;lat;lon;timestamp;pressure;altitude;pressure_sealevel;temperature;humidity
50672;BME280;46021;55.882;37.654;2023-09-07T00:01:19;99960.50;;;8.22;69.37
50672;BME280;46021;55.882;37.654;2023-09-07T00:03:46;99961.38;;;8.23;70.85
50672;BME280;46021;55.882;37.654;2023-09-07T00:06:13;99959.66;;;8.22;69.80
50672;BME280;46021;55.882;37.654;2023-09-07T00:08:40;99968.28;;;8.22;69.89
50672;BME280;46021;55.882;37.654;2023-09-07T00:11:08;99969.16;;;8.24;69.64
50672;BME280;46021;55.882;37.654;2023-09-07T00:13:36;99963.19;;;8.17;69.04
50672;BME280;46021;55.882;37.654;2023-09-07T00:16:05;99965.75;;;8.20;68.87
50672;BME280;46021;55.882;37.654;2023-09-07T00:18:33;99968.38;;;8.17;69.27
50672;BME280;46021;55.882;37.654;2023-09-07T00:21:00;99970.16;;;8.15;69.77
50672;BME280;46021;55.882;37.654;2023-09-07T00:23:29;99976.22;;;8.14;69.01
50672;BME280;46021;55.882;37.654;2023-09-07T00:25:56;99973.69;;;8.11;69.51
50672;BME280;46021;55.882;37.654;2023-09-07T00:28:23;99973.69;;;8.11;70.87
50672;BME280;46021;55.882;37.654;2023-09-07T00:30:50;99971.22;;;8.04;71.96
50672;BME280;46021;55.882;37.654;2023-09-07T00:33:18;99977.28;;;8.04;70.38
50672;BME280;46021;55.882;37.654;2023-09-07T00:35:46;99975.50;;;8.06;70.52
50672;BME280;46021;55.882;37.654;2023-09-07T00:38:13;99975.53;;;8.03;70.60
50672;BME280;46021;55.882;37.654;2023-09-07T00:40:42;99979.91;;;8.01;71.02
50672;BME280;46021;55.882;37.654;2023-09-07T00:43:09;99985.94;;;8.03;70.48
50672;BME280;46021;55.882;37.654;2023-09-07T00:45:37;99968.81;;;7.93;72.18
50672;BME280;46021;55.882;37.654;2023-09-07T00:48:05;99983.34;;;8.03;71.02
50672;BME280;46021;55.882;37.654;2023-09-07T00:50:34;99992.03;;;8.02;71.14
50672;BME280;46021;55.882;37.654;2023-09-07T00:53:01;99992.06;;;7.97;71.69
50672;BME280;46021;55.882;37.654;2023-09-07T00:55:29;100005.88;;;7.99;71.96
50672;BME280;46021;55.882;37.654;2023-09-07T00:57:58;99998.19;;;7.95;71.73
50672;BME280;46021;55.882;37.654;2023-09-07T01:00:26;100001.69;;;7.92;73.11
50672;BME280;46021;55.882;37.654;2023-09-07T01:02:54;100013.78;;;7.92;71.94
50672;BME280;46021;55.882;37.654;2023-09-07T01:05:29;100002.66;;;7.85;71.89
50672;BME280;46021;55.882;37.654;2023-09-07T01:08:10;100012.97;;;7.90;72.31
50672;BME280;46021;55.882;37.654;2023-09-07T01:10:39;100015.63;;;7.87;71.68
50672;BME280;46021;55.882;37.654;2023-09-07T01:13:06;100010.50;;;7.80;72.16
50672;BME280;46021;55.882;37.654;2023-09-07T01:15:33;100013.97;;;7.83;72.30
50672;BME280;46021;55.882;37.654;2023-09-07T01:18:01;100014.88;;;7.78;72.85
50672;BME280;46021;55.882;37.654;2023-09-07T01:20:30;100008.00;;;7.74;72.82
50672;BME280;46021;55.882;37.654;2023-09-07T01:23:00;100020.88;;;7.80;72.97
50672;BME280;46021;55.882;37.654;2023-09-07T01:25:28;100005.41;;;7.74;73.38
50672;BME280;46021;55.882;37.654;2023-09-07T01:27:56;100019.28;;;7.73;73.62
50672;BME280;46021;55.882;37.654;2023-09-07T01:30:26;100022.75;;;7.72;74.06
50672;BME280;46021;55.882;37.654;2023-09-07T01:32:54;100026.25;;;7.71;73.67
50672;BME280;46021;55.882;37.654;2023-09-07T01:35:21;100021.09;;;7.68;73.97
50672;BME280;46021;55.882;37.654;2023-09-07T01:37:49;100021.13;;;7.65;73.98
50672;BME280;46021;55.882;37.654;2023-09-07T01:40:17;100031.50;;;7.65;74.89
50672;BME280;46021;55.882;37.654;2023-09-07T01:42:45;100036.75;;;7.62;74.18
50672;BME280;46021;55.882;37.654;2023-09-07T01:45:12;100041.06;;;7.61;74.74
50672;BME280;46021;55.882;37.654;2023-09-07T01:47:39;100045.31;;;7.67;75.40
50672;BME280;46021;55.882;37.654;2023-09-07T01:50:06;100051.28;;;7.72;75.54
50672;BME280;46021;55.882;37.654;2023-09-07T01:52:33;100045.16;;;7.79;74.60
50672;BME280;46021;55.882;37.654;2023-09-07T01:55:00;100032.16;;;7.81;74.35
50672;BME280;46021;55.882;37.654;2023-09-07T01:57:31;100044.94;;;7.92;74.48
50672;BME280;46021;55.882;37.654;2023-09-07T01:59:58;100047.59;;;7.89;75.85
50672;BME280;46021;55.882;37.654;2023-09-07T02:02:25;100050.19;;;7.89;75.16
50672;BME280;46021;55.882;37.654;2023-09-07T02:04:52;100054.53;;;7.88;75.17
50672;BME280;46021;55.882;37.654;2023-09-07T02:07:19;100051.06;;;7.88;75.54
50672;BME280;46021;55.882;37.654;2023-09-07T02:09:46;100044.25;;;7.80;76.10
50672;BME280;46021;55.882;37.654;2023-09-07T02:12:13;100057.19;;;7.84;76.04
50672;BME280;46021;55.882;37.654;2023-09-07T02:14:42;100056.47;;;7.74;77.76
50672;BME280;46021;55.882;37.654;2023-09-07T02:17:09;100061.66;;;7.75;76.35
50672;BME280;46021;55.882;37.654;2023-09-07T02:19:39;100059.06;;;7.75;75.83
50672;BME280;46021;55.882;37.654;2023-09-07T02:22:07;100070.34;;;7.71;76.31
50672;BME280;46021;55.882;37.654;2023-09-07T02:24:34;100064.31;;;7.69;76.51
50672;BME280;46021;55.882;37.654;2023-09-07T02:27:01;100074.78;;;7.63;76.81
50672;BME280;46021;55.882;37.654;2023-09-07T02:29:28;100069.66;;;7.60;77.27
50672;BME280;46021;55.882;37.654;2023-09-07T02:31:56;100068.72;;;7.63;76.84
50672;BME280;46021;55.882;37.654;2023-09-07T02:34:23;100079.97;;;7.63;76.34
50672;BME280;46021;55.882;37.654;2023-09-07T02:36:51;100079.13;;;7.61;76.78
50672;BME280;46021;55.882;37.654;2023-09-07T02:39:18;100079.13;;;7.61;77.42
50672;BME280;46021;55.882;37.654;2023-09-07T02:41:45;100085.16;;;7.63;78.35
50672;BME280;46021;55.882;37.654;2023-09-07T02:44:13;100082.47;;;7.69;77.31
50672;BME280;46021;55.882;37.654;2023-09-07T02:46:40;100076.44;;;7.67;76.73
50672;BME280;46021;55.882;37.654;2023-09-07T02:49:08;100090.22;;;7.72;76.42
50672;BME280;46021;55.882;37.654;2023-09-07T02:51:35;100100.56;;;7.75;76.09
50672;BME280;46021;55.882;37.654;2023-09-07T02:54:03;100095.31;;;7.78;76.07
50672;BME280;46021;55.882;37.654;2023-09-07T02:56:31;100093.63;;;7.77;76.70
50672;BME280;46021;55.882;37.654;2023-09-07T02:58:58;100100.47;;;7.81;75.97
50672;BME280;46021;55.882;37.654;2023-09-07T03:01:26;100094.44;;;7.81;75.91
50672;BME280;46021;55.882;37.654;2023-09-07T03:03:53;100099.56;;;7.84;76.40
50672;BME280;46021;55.882;37.654;2023-09-07T03:06:21;100088.34;;;7.84;75.22
50672;BME280;46021;55.882;37.654;2023-09-07T03:08:51;100093.66;;;7.74;75.47
50672;BME280;46021;55.882;37.654;2023-09-07T03:11:18;100100.69;;;7.66;76.32
50672;BME280;46021;55.882;37.654;2023-09-07T03:13:48;100098.13;;;7.61;76.66
50672;BME280;46021;55.882;37.654;2023-09-07T03:16:15;100102.50;;;7.58;77.27
50672;BME280;46021;55.882;37.654;2023-09-07T03:18:42;100095.63;;;7.55;76.19
50672;BME280;46021;55.882;37.654;2023-09-07T03:21:10;100089.69;;;7.47;77.77
50672;BME280;46021;55.882;37.654;2023-09-07T03:23:38;100106.00;;;7.57;76.23
50672;BME280;46021;55.882;37.654;2023-09-07T03:26:11;100101.72;;;7.53;77.05
50672;BME280;46021;55.882;37.654;2023-09-07T03:28:38;100108.59;;;7.57;76.49
50672;BME280;46021;55.882;37.654;2023-09-07T03:31:06;100111.09;;;7.63;77.92
50672;BME280;46021;55.882;37.654;2023-09-07T03:33:33;100110.97;;;7.72;77.31
50672;BME280;46021;55.882;37.654;2023-09-07T03:36:00;100114.25;;;7.87;77.23
50672;BME280;46021;55.882;37.654;2023-09-07T03:38:27;100110.38;;;8.15;78.18
50672;BME280;46021;55.882;37.654;2023-09-07T03:40:56;100118.50;;;8.53;77.04
50672;BME280;46021;55.882;37.654;2023-09-07T03:43:23;100112.50;;;8.97;77.22
50672;BME280;46021;55.882;37.654;2023-09-07T03:45:50;100120.25;;;9.46;76.35
50672;BME280;46021;55.882;37.654;2023-09-07T03:48:17;100127.97;;;9.92;75.38
50672;BME280;46021;55.882;37.654;2023-09-07T03:50:45;100124.25;;;10.42;74.18
50672;BME280;46021;55.882;37.654;2023-09-07T03:53:12;100119.44;;;10.95;73.26
50672;BME280;46021;55.882;37.654;2023-09-07T03:55:42;100126.22;;;11.34;71.12
50672;BME280;46021;55.882;37.654;2023-09-07T03:58:12;100122.56;;;11.70;69.74
50672;BME280;46021;55.882;37.654;2023-09-07T04:00:41;100133.19;;;11.94;68.20
50672;BME280;46021;55.882;37.654;2023-09-07T04:03:08;100130.63;;;12.21;66.69
50672;BME280;46021;55.882;37.654;2023-09-07T04:05:37;100138.81;;;12.65;66.84
50672;BME280;46021;55.882;37.654;2023-09-07T04:08:04;100140.66;;;13.13;66.26
50672;BME280;46021;55.882;37.654;2023-09-07T04:10:31;100140.41;;;13.46;63.80
50672;BME280;46021;55.882;37.654;2023-09-07T04:12:58;100139.25;;;13.53;62.48
50672;BME280;46021;55.882;37.654;2023-09-07T04:15:28;100136.53;;;13.80;62.08
50672;BME280;46021;55.882;37.654;2023-09-07T04:17:57;100140.00;;;14.26;61.67
50672;BME280;46021;55.882;37.654;2023-09-07T04:20:24;100146.16;;;14.69;60.38
50672;BME280;46021;55.882;37.654;2023-09-07T04:22:52;100135.84;;;14.85;58.60
50672;BME280;46021;55.882;37.654;2023-09-07T04:25:19;100142.88;;;15.26;58.17
50672;BME280;46021;55.882;37.654;2023-09-07T04:27:46;100148.25;;;15.43;55.47
50672;BME280;46021;55.882;37.654;2023-09-07T04:30:13;100154.56;;;15.97;57.12
50672;BME280;46021;55.882;37.654;2023-09-07T04:32:42;100157.63;;;16.07;55.04
50672;BME280;46021;55.882;37.654;2023-09-07T04:35:09;100153.22;;;16.44;55.07
50672;BME280;46021;55.882;37.654;2023-09-07T04:37:37;100166.47;;;16.43;53.65
50672;BME280;46021;55.882;37.654;2023-09-07T04:40:06;100158.84;;;16.36;53.64
50672;BME280;46021;55.882;37.654;2023-09-07T04:42:33;100157.50;;;16.64;53.37
50672;BME280;46021;55.882;37.654;2023-09-07T04:45:00;100167.78;;;15.77;51.90
50672;BME280;46021;55.882;37.654;2023-09-07T04:47:30;100166.13;;;15.35;52.36
50672;BME280;46021;55.882;37.654;2023-09-07T04:50:00;100175.38;;;15.02;53.05
50672;BME280;46021;55.882;37.654;2023-09-07T04:52:27;100174.59;;;14.58;53.34
50672;BME280;46021;55.882;37.654;2023-09-07T04:54:54;100166.16;;;14.28;54.22
50672;BME280;46021;55.882;37.654;2023-09-07T04:57:21;100175.06;;;14.23;54.71
50672;BME280;46021;55.882;37.654;2023-09-07T04:59:48;100180.72;;;13.89;54.06
50672;BME280;46021;55.882;37.654;2023-09-07T05:02:15;100173.66;;;13.91;55.71
50672;BME280;46021;55.882;37.654;2023-09-07T05:04:43;100177.44;;;14.74;56.21
50672;BME280;46021;55.882;37.654;2023-09-07T05:07:12;100169.66;;;15.13;53.24
50672;BME280;46021;55.882;37.654;2023-09-07T05:09:39;100175.94;;;14.68;52.80
50672;BME280;46021;55.882;37.654;2023-09-07T05:12:06;100165.28;;;14.27;54.47
50672;BME280;46021;55.882;37.654;2023-09-07T05:14:33;100179.91;;;14.11;54.79
50672;BME280;46021;55.882;37.654;2023-09-07T05:17:00;100188.84;;;14.51;55.80
50672;BME280;46021;55.882;37.654;2023-09-07T05:19:27;100187.38;;;14.88;55.01
50672;BME280;46021;55.882;37.654;2023-09-07T05:21:55;100170.78;;;15.88;54.98
50672;BME280;46021;55.882;37.654;2023-09-07T05:24:24;100173.03;;;16.88;51.51
50672;BME280;46021;55.882;37.654;2023-09-07T05:26:51;100170.97;;;17.79;50.07
50672;BME280;46021;55.882;37.654;2023-09-07T05:29:19;100180.56;;;17.64;48.41
50672;BME280;46021;55.882;37.654;2023-09-07T05:31:46;100174.28;;;16.98;50.09
50672;BME280;46021;55.882;37.654;2023-09-07T05:34:13;100181.06;;;17.54;50.54
50672;BME280;46021;55.882;37.654;2023-09-07T05:36:40;100170.84;;;17.31;48.09
50672;BME280;46021;55.882;37.654;2023-09-07T05:39:08;100168.47;;;18.09;47.33
50672;BME280;46021;55.882;37.654;2023-09-07T05:41:36;100177.06;;;17.63;46.91
50672;BME280;46021;55.882;37.654;2023-09-07T05:44:04;100172.47;;;15.89;48.92
50672;BME280;46021;55.882;37.654;2023-09-07T05:46:31;100186.59;;;15.06;50.04
50672;BME280;46021;55.882;37.654;2023-09-07T05:48:58;100182.34;;;14.61;50.72
50672;BME280;46021;55.882;37.654;2023-09-07T05:51:25;100205.41;;;14.07;51.81
50672;BME280;46021;55.882;37.654;2023-09-07T05:53:54;100193.19;;;13.59;53.25
50672;BME280;46021;55.882;37.654;2023-09-07T05:56:22;100192.59;;;13.25;53.32
50672;BME280;46021;55.882;37.654;2023-09-07T05:58:50;100199.72;;;12.95;54.16
50672;BME280;46021;55.882;37.654;2023-09-07T06:01:17;100199.41;;;12.78;54.67
50672;BME280;46021;55.882;37.654;2023-09-07T06:03:45;100193.91;;;12.59;54.68
50672;BME280;46021;55.882;37.654;2023-09-07T06:06:12;100199.13;;;12.32;55.62
50672;BME280;46021;55.882;37.654;2023-09-07T06:08:39;100204.00;;;12.15;56.03
50672;BME280;46021;55.882;37.654;2023-09-07T06:11:06;100195.75;;;12.00;56.59
50672;BME280;46021;55.882;37.654;2023-09-07T06:13:33;100211.31;;;12.03;56.81
50672;BME280;46021;55.882;37.654;2023-09-07T06:16:02;100213.28;;;11.95;56.87
50672;BME280;46021;55.882;37.654;2023-09-07T06:18:30;100216.78;;;11.94;57.65
50672;BME280;46021;55.882;37.654;2023-09-07T06:20:57;100206.84;;;11.76;58.08
50672;BME280;46021;55.882;37.654;2023-09-07T06:23:24;100215.50;;;11.78;57.82
50672;BME280;46021;55.882;37.654;2023-09-07T06:25:52;100216.69;;;11.66;58.45
50672;BME280;46021;55.882;37.654;2023-09-07T06:28:19;100217.97;;;11.51;58.37
50672;BME280;46021;55.882;37.654;2023-09-07T06:30:46;100219.94;;;11.43;58.44
50672;BME280;46021;55.882;37.654;2023-09-07T06:33:15;100232.47;;;11.28;60.21
50672;BME280;46021;55.882;37.654;2023-09-07T06:35:43;100218.31;;;11.04;60.59
50672;BME280;46021;55.882;37.654;2023-09-07T06:38:10;100239.00;;;11.12;59.86
50672;BME280;46021;55.882;37.654;2023-09-07T06:40:37;100233.25;;;10.98;60.40
50672;BME280;46021;55.882;37.654;2023-09-07T06:43:05;100235.84;;;10.99;60.60
50672;BME280;46021;55.882;37.654;2023-09-07T06:45:34;100246.25;;;11.01;61.16
50672;BME280;46021;55.882;37.654;2023-09-07T06:48:01;100244.97;;;11.17;60.51
50672;BME280;46021;55.882;37.654;2023-09-07T06:50:30;100229.22;;;11.20;60.32
50672;BME280;46021;55.882;37.654;2023-09-07T06:52:57;100239.41;;;11.29;60.16
50672;BME280;46021;55.882;37.654;2023-09-07T06:55:24;100239.25;;;11.36;59.81
50672;BME280;46021;55.882;37.654;2023-09-07T06:57:53;100238.59;;;11.27;59.78
50672;BME280;46021;55.882;37.654;2023-09-07T07:00:21;100247.38;;;11.25;60.20
50672;BME280;46021;55.882;37.654;2023-09-07T07:02:48;100234.53;;;11.17;60.38
50672;BME280;46021;55.882;37.654;2023-09-07T07:05:16;100233.63;;;11.18;60.25
50672;BME280;46021;55.882;37.654;2023-09-07T07:07:44;100239.66;;;11.20;60.21
50672;BME280;46021;55.882;37.654;2023-09-07T07:10:11;100248.53;;;11.13;60.29
50672;BME280;46021;55.882;37.654;2023-09-07T07:12:39;100240.47;;;11.22;60.11
50672;BME280;46021;55.882;37.654;2023-09-07T07:15:07;100234.28;;;11.26;60.10
50672;BME280;46021;55.882;37.654;2023-09-07T07:17:34;100241.78;;;11.39;59.90
50672;BME280;46021;55.882;37.654;2023-09-07T07:20:01;100237.31;;;11.44;59.81
50672;BME280;46021;55.882;37.654;2023-09-07T07:22:30;100238.75;;;11.56;59.64
50672;BME280;46021;55.882;37.654;2023-09-07T07:25:02;100255.88;;;11.64;58.92
50672;BME280;46021;55.882;37.654;2023-09-07T07:27:31;100227.66;;;11.79;59.19
50672;BME280;46021;55.882;37.654;2023-09-07T07:29:59;100236.84;;;11.94;59.08
50672;BME280;46021;55.882;37.654;2023-09-07T07:32:26;100232.03;;;12.09;58.47
50672;BME280;46021;55.882;37.654;2023-09-07T07:34:54;100236.88;;;12.23;58.25
50672;BME280;46021;55.882;37.654;2023-09-07T07:37:22;100237.28;;;12.38;58.00
50672;BME280;46021;55.882;37.654;2023-09-07T07:39:50;100239.66;;;12.45;57.90
50672;BME280;46021;55.882;37.654;2023-09-07T07:42:18;100246.53;;;12.50;56.89
50672;BME280;46021;55.882;37.654;2023-09-07T07:44:47;100242.19;;;12.48;56.78
50672;BME280;46021;55.882;37.654;2023-09-07T07:47:14;100224.84;;;12.46;56.54
50672;BME280;46021;55.882;37.654;2023-09-07T07:49:41;100238.72;;;12.48;56.84
50672;BME280;46021;55.882;37.654;2023-09-07T07:52:08;100233.34;;;12.53;56.91
50672;BME280;46021;55.882;37.654;2023-09-07T07:54:36;100231.16;;;12.67;56.23
50672;BME280;46021;55.882;37.654;2023-09-07T07:57:04;100233.19;;;12.85;55.83
50672;BME280;46021;55.882;37.654;2023-09-07T07:59:34;100221.97;;;12.82;55.41
50672;BME280;46021;55.882;37.654;2023-09-07T08:02:02;100223.03;;;12.76;54.05
50672;BME280;46021;55.882;37.654;2023-09-07T08:04:29;100221.50;;;12.96;54.56
50672;BME280;46021;55.882;37.654;2023-09-07T08:06:58;100220.19;;;13.09;54.83
50672;BME280;46021;55.882;37.654;2023-09-07T08:09:30;100215.13;;;13.31;54.81
50672;BME280;46021;55.882;37.654;2023-09-07T08:11:57;100218.00;;;13.49;54.46
50672;BME280;46021;55.882;37.654;2023-09-07T08:14:29;100205.66;;;13.52;53.27
50672;BME280;46021;55.882;37.654;2023-09-07T08:16:58;100215.53;;;13.69;52.66
50672;BME280;46021;55.882;37.654;2023-09-07T08:19:25;100211.28;;;13.90;52.20
50672;BME280;46021;55.882;37.654;2023-09-07T08:21:53;100199.66;;;13.97;51.49
50672;BME280;46021;55.882;37.654;2023-09-07T08:24:21;100206.69;;;14.19;51.13
50672;BME280;46021;55.882;37.654;2023-09-07T08:26:48;100214.75;;;14.36;50.88
50672;BME280;46021;55.882;37.654;2023-09-07T08:29:17;100207.88;;;14.56;50.18
50672;BME280;46021;55.882;37.654;2023-09-07T08:31:46;100212.97;;;14.82;49.30
50672;BME280;46021;55.882;37.654;2023-09-07T08:34:15;100210.59;;;14.76;49.00
50672;BME280;46021;55.882;37.654;2023-09-07T08:36:45;100218.38;;;15.00;49.06
50672;BME280;46021;55.882;37.654;2023-09-07T08:39:12;100218.88;;;15.08;48.68
50672;BME280;46021;55.882;37.654;2023-09-07T08:41:39;100205.13;;;15.24;47.43
50672;BME280;46021;55.882;37.654;2023-09-07T08:44:09;100194.91;;;15.57;47.93
50672;BME280;46021;55.882;37.654;2023-09-07T08:46:36;100187.47;;;15.87;44.88
50672;BME280;46021;55.882;37.654;2023-09-07T08:49:04;100199.00;;;16.76;44.66
50672;BME280;46021;55.882;37.654;2023-09-07T08:51:33;100201.50;;;18.16;42.95
50672;BME280;46021;55.882;37.654;2023-09-07T08:54:03;100196.06;;;19.56;43.05
50672;BME280;46021;55.882;37.654;2023-09-07T08:56:30;100196.16;;;21.34;40.60
50672;BME280;46021;55.882;37.654;2023-09-07T08:58:57;100191.78;;;22.71;36.72
50672;BME280;46021;55.882;37.654;2023-09-07T09:01:24;100190.56;;;24.02;34.37
50672;BME280;46021;55.882;37.654;2023-09-07T09:03:51;100196.22;;;25.28;32.77
50672;BME280;46021;55.882;37.654;2023-09-07T09:06:20;100183.41;;;26.15;32.19
50672;BME280;46021;55.882;37.654;2023-09-07T09:08:52;100189.56;;;25.44;31.50
50672;BME280;46021;55.882;37.654;2023-09-07T09:11:20;100196.88;;;25.73;32.52
50672;BME280;46021;55.882;37.654;2023-09-07T09:13:48;100192.75;;;24.20;31.36
50672;BME280;46021;55.882;37.654;2023-09-07T09:16:15;100199.19;;;22.78;32.54
50672;BME280;46021;55.882;37.654;2023-09-07T09:18:47;100199.97;;;21.42;33.49
50672;BME280;46021;55.882;37.654;2023-09-07T09:21:15;100205.50;;;20.59;35.88
50672;BME280;46021;55.882;37.654;2023-09-07T09:23:43;100203.41;;;21.45;36.01
50672;BME280;46021;55.882;37.654;2023-09-07T09:26:11;100204.34;;;22.69;34.08
50672;BME280;46021;55.882;37.654;2023-09-07T09:28:39;100189.59;;;24.15;32.74
50672;BME280;46021;55.882;37.654;2023-09-07T09:31:06;100188.13;;;24.98;31.04
50672;BME280;46021;55.882;37.654;2023-09-07T09:33:38;100195.75;;;24.15;30.43
50672;BME280;46021;55.882;37.654;2023-09-07T09:36:06;100196.97;;;23.54;31.97
50672;BME280;46021;55.882;37.654;2023-09-07T09:38:33;100193.38;;;23.09;31.66
50672;BME280;46021;55.882;37.654;2023-09-07T09:41:03;100200.91;;;21.41;32.05
50672;BME280;46021;55.882;37.654;2023-09-07T09:43:31;100206.13;;;20.36;33.17
50672;BME280;46021;55.882;37.654;2023-09-07T09:45:59;100201.34;;;19.56;34.52
50672;BME280;46021;55.882;37.654;2023-09-07T09:48:27;100198.97;;;19.37;35.85
50672;BME280;46021;55.882;37.654;2023-09-07T09:50:55;100191.34;;;20.60;35.47
50672;BME280;46021;55.882;37.654;2023-09-07T09:53:23;100200.00;;;22.55;34.51
50672;BME280;46021;55.882;37.654;2023-09-07T09:55:52;100185.69;;;23.28;32.06
50672;BME280;46021;55.882;37.654;2023-09-07T09:58:19;100189.78;;;22.62;31.67
50672;BME280;46021;55.882;37.654;2023-09-07T10:00:50;100197.03;;;21.86;32.47
50672;BME280;46021;55.882;37.654;2023-09-07T10:03:22;100201.59;;;21.84;32.90
50672;BME280;46021;55.882;37.654;2023-09-07T10:05:52;100199.97;;;22.44;32.29
50672;BME280;46021;55.882;37.654;2023-09-07T10:08:20;100185.19;;;22.88;32.33
50672;BME280;46021;55.882;37.654;2023-09-07T10:10:52;100199.78;;;23.98;32.05
50672;BME280;46021;55.882;37.654;2023-09-07T10:13:29;100190.31;;;25.25;30.06
50672;BME280;46021;55.882;37.654;2023-09-07T10:16:01;100167.88;;;25.27;27.68
50672;BME280;46021;55.882;37.654;2023-09-07T10:18:33;100174.88;;;25.90;27.41
50672;BME280;46021;55.882;37.654;2023-09-07T10:21:01;100191.94;;;25.68;27.36
50672;BME280;46021;55.882;37.654;2023-09-07T10:23:36;100186.66;;;25.26;27.11
50672;BME280;46021;55.882;37.654;2023-09-07T10:26:04;100186.97;;;23.81;28.66
50672;BME280;46021;55.882;37.654;2023-09-07T10:28:32;100202.75;;;22.42;30.27
50672;BME280;46021;55.882;37.654;2023-09-07T10:31:01;100194.47;;;21.71;31.71
50672;BME280;46021;55.882;37.654;2023-09-07T10:33:30;100196.22;;;22.09;31.94
50672;BME280;46021;55.882;37.654;2023-09-07T10:35:57;100181.00;;;23.66;31.17
50672;BME280;46021;55.882;37.654;2023-09-07T10:38:25;100177.53;;;24.86;28.73
50672;BME280;46021;55.882;37.654;2023-09-07T10:40:55;100188.38;;;25.88;27.66
50672;BME280;46021;55.882;37.654;2023-09-07T10:43:25;100171.69;;;26.66;26.75
50672;BME280;46021;55.882;37.654;2023-09-07T10:45:53;100167.00;;;25.88;26.67
50672;BME280;46021;55.882;37.654;2023-09-07T10:48:21;100178.09;;;24.69;27.67
50672;BME280;46021;55.882;37.654;2023-09-07T10:50:49;100186.38;;;23.19;28.72
50672;BME280;46021;55.882;37.654;2023-09-07T10:53:25;100191.09;;;21.69;31.19
50672;BME280;46021;55.882;37.654;2023-09-07T10:55:53;100182.72;;;21.50;32.71
50672;BME280;46021;55.882;37.654;2023-09-07T10:58:26;100183.25;;;22.17;31.89
50672;BME280;46021;55.882;37.654;2023-09-07T11:00:53;100188.38;;;23.40;31.77
50672;BME280;46021;55.882;37.654;2023-09-07T11:03:22;100181.53;;;24.48;30.24
50672;BME280;46021;55.882;37.654;2023-09-07T11:05:49;100181.28;;;25.78;29.06
50672;BME280;46021;55.882;37.654;2023-09-07T11:08:18;100178.09;;;26.24;27.64
50672;BME280;46021;55.882;37.654;2023-09-07T11:10:45;100172.47;;;27.35;27.55
50672;BME280;46021;55.882;37.654;2023-09-07T11:13:12;100174.56;;;27.21;25.64
50672;BME280;46021;55.882;37.654;2023-09-07T11:15:39;100177.78;;;26.18;26.72
50672;BME280;46021;55.882;37.654;2023-09-07T11:18:07;100184.59;;;25.29;27.56
50672;BME280;46021;55.882;37.654;2023-09-07T11:20:36;100184.69;;;25.07;27.82
50672;BME280;46021;55.882;37.654;2023-09-07T11:23:05;100183.06;;;25.37;27.98
50672;BME280;46021;55.882;37.654;2023-09-07T11:25:36;100173.16;;;25.79;27.06
50672;BME280;46021;55.882;37.654;2023-09-07T11:28:04;100171.50;;;25.88;27.29
50672;BME280;46021;55.882;37.654;2023-09-07T11:30:31;100180.38;;;25.58;27.27
50672;BME280;46021;55.882;37.654;2023-09-07T11:33:03;100179.81;;;25.54;26.91
50672;BME280;46021;55.882;37.654;2023-09-07T11:35:31;100176.13;;;26.17;27.34
50672;BME280;46021;55.882;37.654;2023-09-07T11:38:01;100169.66;;;26.39;26.52
50672;BME280;46021;55.882;37.654;2023-09-07T11:40:29;100163.53;;;26.77;26.03
50672;BME280;46021;55.882;37.654;2023-09-07T11:42:57;100172.22;;;27.18;26.45
50672;BME280;46021;55.882;37.654;2023-09-07T11:45:24;100179.66;;;27.25;25.98
50672;BME280;46021;55.882;37.654;2023-09-07T11:47:51;100172.03;;;26.13;25.47
50672;BME280;46021;55.882;37.654;2023-09-07T11:50:19;100160.41;;;25.52;25.54
50672;BME280;46021;55.882;37.654;2023-09-07T11:52:46;100163.34;;;24.54;25.83
50672;BME280;46021;55.882;37.654;2023-09-07T11:55:14;100182.06;;;23.29;26.91
50672;BME280;46021;55.882;37.654;2023-09-07T11:57:41;100181.59;;;22.65;27.88
50672;BME280;46021;55.882;37.654;2023-09-07T12:00:09;100178.69;;;21.57;29.00
50672;BME280;46021;55.882;37.654;2023-09-07T12:02:40;100172.59;;;20.63;30.14
50672;BME280;46021;55.882;37.654;2023-09-07T12:05:07;100174.47;;;19.50;31.85
50672;BME280;46021;55.882;37.654;2023-09-07T12:07:35;100183.97;;;18.47;33.81
50672;BME280;46021;55.882;37.654;2023-09-07T12:10:02;100186.13;;;18.70;34.41
50672;BME280;46021;55.882;37.654;2023-09-07T12:12:32;100177.88;;;19.80;33.88
50672;BME280;46021;55.882;37.654;2023-09-07T12:14:59;100171.22;;;21.11;33.23
50672;BME280;46021;55.882;37.654;2023-09-07T12:17:26;100179.41;;;22.22;31.44
50672;BME280;46021;55.882;37.654;2023-09-07T12:19:53;100169.97;;;22.90;30.24
50672;BME280;46021;55.882;37.654;2023-09-07T12:22:20;100161.75;;;22.33;29.98
50672;BME280;46021;55.882;37.654;2023-09-07T12:24:47;100172.38;;;22.93;29.62
50672;BME280;46021;55.882;37.654;2023-09-07T12:27:14;100157.75;;;23.34;29.20
50672;BME280;46021;55.882;37.654;2023-09-07T12:29:42;100158.25;;;23.73;28.77
50672;BME280;46021;55.882;37.654;2023-09-07T12:32:10;100156.09;;;24.01;28.49
50672;BME280;46021;55.882;37.654;2023-09-07T12:34:37;100166.25;;;23.50;27.63
50672;BME280;46021;55.882;37.654;2023-09-07T12:37:04;100170.13;;;23.00;28.70
50672;BME280;46021;55.882;37.654;2023-09-07T12:39:32;100156.91;;;23.22;28.86
50672;BME280;46021;55.882;37.654;2023-09-07T12:41:59;100164.69;;;23.59;28.51
50672;BME280;46021;55.882;37.654;2023-09-07T12:44:27;100161.97;;;23.14;27.72
50672;BME280;46021;55.882;37.654;2023-09-07T12:46:55;100162.88;;;23.02;27.99